createdAt,value
2022-11-06T00:22:35.708Z,100.00
2022-11-06T00:25:53.037Z,100.00
2022-11-06T00:28:20.538Z,100.00
2022-11-06T00:30:48.033Z,100.00
2022-11-06T00:33:15.642Z,98.75
2022-11-06T00:35:43.077Z,98.98
2022-11-06T00:38:10.919Z,97.61
2022-11-06T00:40:38.706Z,98.74
2022-11-06T00:43:06.225Z,98.12
2022-11-06T00:45:33.699Z,98.99
2022-11-06T00:48:01.223Z,100.00
2022-11-06T00:50:28.732Z,100.00
2022-11-06T00:52:56.299Z,100.00
2022-11-06T00:55:26.107Z,100.00
2022-11-06T00:57:53.558Z,100.00
2022-11-06T01:00:22.302Z,100.00
2022-11-06T01:02:50.116Z,100.00
2022-11-06T01:05:17.979Z,100.00
2022-11-06T01:07:45.417Z,100.00
2022-11-06T01:10:13.008Z,100.00
2022-11-06T01:12:40.445Z,100.00
2022-11-06T01:15:08.241Z,100.00
2022-11-06T01:17:35.872Z,100.00
2022-11-06T01:20:05.090Z,100.00
2022-11-06T01:22:33.572Z,100.00
2022-11-06T01:25:01.224Z,100.00
2022-11-06T01:27:28.813Z,100.00
2022-11-06T01:29:56.903Z,100.00
2022-11-06T01:32:24.334Z,100.00
2022-11-06T01:34:51.802Z,100.00
2022-11-06T01:37:19.364Z,100.00
2022-11-06T01:39:48.526Z,100.00
2022-11-06T01:42:18.728Z,100.00
2022-11-06T01:45:07.757Z,100.00
2022-11-06T01:47:35.123Z,100.00
2022-11-06T01:50:08.915Z,100.00
2022-11-06T01:52:37.058Z,100.00
2022-11-06T01:55:13.279Z,100.00
2022-11-06T01:57:41.016Z,100.00
2022-11-06T02:00:09.271Z,100.00
2022-11-06T02:02:38.330Z,100.00
2022-11-06T02:05:06.565Z,100.00
2022-11-06T02:07:34.416Z,100.00
2022-11-06T02:10:02.182Z,100.00
2022-11-06T02:12:39.474Z,100.00
2022-11-06T02:15:13.166Z,100.00
2022-11-06T02:18:00.033Z,100.00
2022-11-06T02:20:42.490Z,100.00
2022-11-06T02:23:50.862Z,100.00
2022-11-06T02:26:51.041Z,100.00
2022-11-06T02:29:22.788Z,99.01
2022-11-06T02:31:54.865Z,97.54
2022-11-06T02:34:26.162Z,96.20
2022-11-06T02:37:01.470Z,94.33
2022-11-06T02:39:34.322Z,95.34
2022-11-06T02:42:05.284Z,93.82
2022-11-06T02:44:36.538Z,95.59
2022-11-06T02:47:10.514Z,92.00
2022-11-06T02:49:40.623Z,93.38
2022-11-06T02:52:25.374Z,93.64
2022-11-06T02:55:02.806Z,92.68
2022-11-06T02:57:36.281Z,92.67
2022-11-06T03:00:15.029Z,93.75
2022-11-06T03:02:50.013Z,93.80
2022-11-06T03:05:25.097Z,93.79
2022-11-06T03:08:00.384Z,94.26
2022-11-06T03:10:33.675Z,93.56
2022-11-06T03:13:14.682Z,96.04
2022-11-06T03:15:53.217Z,100.00
2022-11-06T03:19:05.133Z,100.00
2022-11-06T03:21:38.958Z,100.00
2022-11-06T03:24:31.087Z,100.00
2022-11-06T03:27:02.477Z,100.00
2022-11-06T03:29:40.224Z,99.03
2022-11-06T03:32:15.102Z,99.76
2022-11-06T03:34:51.561Z,100.00
2022-11-06T03:37:36.142Z,100.00
2022-11-06T03:40:09.524Z,100.00
2022-11-06T03:42:40.490Z,100.00
2022-11-06T03:45:12.074Z,100.00
2022-11-06T03:47:46.699Z,100.00
2022-11-06T03:50:20.974Z,100.00
2022-11-06T03:52:55.517Z,100.00
2022-11-06T03:55:28.469Z,99.74
2022-11-06T03:57:59.724Z,99.69
2022-11-06T04:00:27.109Z,100.00
2022-11-06T04:03:04.990Z,100.00
2022-11-06T04:05:38.306Z,100.00
2022-11-06T04:08:26.635Z,100.00
2022-11-06T04:11:18.063Z,100.00
2022-11-06T04:14:03.004Z,100.00
2022-11-06T04:16:36.397Z,100.00
2022-11-06T04:19:06.097Z,100.00
2022-11-06T04:21:36.446Z,100.00
2022-11-06T04:24:35.786Z,100.00
2022-11-06T04:27:39.126Z,100.00
2022-11-06T04:30:06.838Z,100.00
2022-11-06T04:33:01.922Z,100.00
2022-11-06T04:35:40.549Z,100.00
2022-11-06T04:38:36.374Z,100.00
2022-11-06T04:41:12.763Z,100.00
2022-11-06T04:43:51.975Z,100.00
2022-11-06T04:46:25.621Z,100.00
2022-11-06T04:48:54.358Z,100.00
2022-11-06T04:51:27.311Z,100.00
2022-11-06T04:53:55.574Z,100.00
2022-11-06T04:56:29.474Z,100.00
2022-11-06T04:58:58.081Z,100.00
2022-11-06T05:01:26.108Z,100.00
2022-11-06T05:03:53.600Z,100.00
2022-11-06T05:06:23.538Z,100.00
2022-11-06T05:08:55.460Z,100.00
2022-11-06T05:11:22.928Z,100.00
2022-11-06T05:13:50.661Z,100.00
2022-11-06T05:16:18.253Z,100.00
2022-11-06T05:18:45.761Z,100.00
2022-11-06T05:21:31.384Z,100.00
2022-11-06T05:23:58.829Z,100.00
2022-11-06T05:26:26.420Z,100.00
2022-11-06T05:28:53.811Z,100.00
2022-11-06T05:31:21.359Z,100.00
2022-11-06T05:33:48.900Z,100.00
2022-11-06T05:36:16.632Z,100.00
2022-11-06T05:38:44.223Z,100.00
2022-11-06T05:41:11.615Z,100.00
2022-11-06T05:43:39.262Z,100.00
2022-11-06T05:46:14.963Z,100.00
2022-11-06T05:48:51.480Z,100.00
2022-11-06T05:51:20.027Z,100.00
2022-11-06T05:53:47.576Z,100.00
2022-11-06T05:56:15.315Z,100.00
2022-11-06T05:58:44.871Z,100.00
2022-11-06T06:01:13.356Z,100.00
2022-11-06T06:03:41.132Z,100.00
2022-11-06T06:06:08.626Z,100.00
2022-11-06T06:08:36.222Z,100.00
2022-11-06T06:11:07.506Z,100.00
2022-11-06T06:13:37.902Z,100.00
2022-11-06T06:16:06.444Z,100.00
2022-11-06T06:18:34.233Z,100.00
2022-11-06T06:21:01.744Z,100.00
2022-11-06T06:23:29.193Z,100.00
2022-11-06T06:25:57.533Z,100.00
2022-11-06T06:28:25.189Z,100.00
2022-11-06T06:30:57.189Z,100.00
2022-11-06T06:33:27.652Z,100.00
2022-11-06T06:35:55.181Z,100.00
2022-11-06T06:38:22.929Z,100.00
2022-11-06T06:40:50.348Z,100.00
2022-11-06T06:43:17.810Z,100.00
2022-11-06T06:45:45.285Z,100.00
2022-11-06T06:48:13.077Z,100.00
2022-11-06T06:50:41.085Z,100.00
2022-11-06T06:53:08.529Z,100.00
2022-11-06T06:55:36.045Z,100.00
2022-11-06T06:58:03.526Z,100.00
2022-11-06T07:00:31.123Z,100.00
2022-11-06T07:02:58.562Z,100.00
2022-11-06T07:05:28.535Z,100.00
2022-11-06T07:07:56.928Z,100.00
2022-11-06T07:10:24.430Z,100.00
2022-11-06T07:13:01.399Z,100.00
2022-11-06T07:15:29.650Z,100.00
2022-11-06T07:18:03.125Z,100.00
2022-11-06T07:20:30.910Z,100.00
2022-11-06T07:22:58.584Z,100.00
2022-11-06T07:25:28.702Z,100.00
2022-11-06T07:28:02.819Z,100.00
2022-11-06T07:30:31.087Z,98.53
2022-11-06T07:33:02.787Z,96.33
2022-11-06T07:35:31.323Z,100.00
2022-11-06T07:38:01.780Z,97.32
2022-11-06T07:40:29.886Z,95.15
2022-11-06T07:43:06.428Z,98.41
2022-11-06T07:45:34.738Z,98.75
2022-11-06T07:48:02.519Z,95.89
2022-11-06T07:50:30.203Z,94.93
2022-11-06T07:52:58.333Z,93.99
2022-11-06T07:55:26.271Z,91.04
2022-11-06T07:57:53.769Z,86.62
2022-11-06T08:00:21.525Z,77.66
2022-11-06T08:02:53.279Z,71.02
2022-11-06T08:05:21.363Z,63.27
2022-11-06T08:07:48.979Z,60.89
2022-11-06T08:10:16.764Z,56.73
2022-11-06T08:12:44.297Z,55.03
2022-11-06T08:15:12.067Z,55.02
2022-11-06T08:17:39.545Z,54.59
2022-11-06T08:20:08.087Z,52.30
2022-11-06T08:22:35.836Z,50.00
2022-11-06T08:25:03.549Z,46.21
2022-11-06T08:27:31.014Z,47.41
2022-11-06T08:29:58.887Z,47.98
2022-11-06T08:32:28.436Z,41.64
2022-11-06T08:34:55.972Z,41.67
2022-11-06T08:37:26.066Z,47.03
2022-11-06T08:39:53.552Z,46.48
2022-11-06T08:42:21.247Z,47.20
2022-11-06T08:44:48.744Z,45.89
2022-11-06T08:47:16.347Z,50.33
2022-11-06T08:49:43.823Z,45.03
2022-11-06T08:52:11.434Z,46.10
2022-11-06T08:54:38.967Z,46.86
2022-11-06T08:57:06.475Z,46.71
2022-11-06T08:59:34.091Z,45.76
2022-11-06T09:02:02.369Z,41.00
2022-11-06T09:04:30.465Z,42.66
2022-11-06T09:06:58.864Z,36.13
2022-11-06T09:09:32.129Z,35.07
2022-11-06T09:12:00.776Z,37.62
2022-11-06T09:14:28.240Z,39.67
2022-11-06T09:16:55.841Z,40.57
2022-11-06T09:19:25.874Z,35.99
2022-11-06T09:21:56.365Z,33.50
2022-11-06T09:24:37.520Z,33.51
2022-11-06T09:27:11.641Z,32.78
2022-11-06T09:29:40.986Z,37.70
2022-11-06T09:32:08.522Z,40.33
2022-11-06T09:34:36.107Z,40.07
2022-11-06T09:37:03.736Z,39.33
2022-11-06T09:39:31.353Z,39.33
2022-11-06T09:42:04.846Z,37.91
2022-11-06T09:44:46.380Z,39.51
2022-11-06T09:47:19.019Z,37.53
2022-11-06T09:49:52.500Z,38.68
2022-11-06T09:52:42.872Z,39.58
2022-11-06T09:55:22.393Z,40.62
2022-11-06T09:58:04.072Z,42.07
2022-11-06T10:00:31.863Z,38.96
2022-11-06T10:03:30.607Z,40.61
2022-11-06T10:05:58.191Z,42.79
2022-11-06T10:08:30.751Z,40.38
2022-11-06T10:10:58.221Z,46.15
2022-11-06T10:14:06.544Z,43.81
2022-11-06T10:16:42.708Z,42.42
2022-11-06T10:19:20.459Z,42.16
2022-11-06T10:22:08.293Z,46.41
2022-11-06T10:25:06.375Z,43.42
2022-11-06T10:27:43.400Z,41.99
2022-11-06T10:30:18.621Z,44.90
2022-11-06T10:33:17.905Z,43.78
2022-11-06T10:35:59.560Z,44.12
2022-11-06T10:38:36.630Z,43.61
2022-11-06T10:45:16.958Z,49.18
2022-11-06T10:47:55.640Z,47.81
2022-11-06T10:50:28.289Z,51.08
2022-11-06T10:53:05.995Z,49.36
2022-11-06T10:55:42.337Z,50.29
2022-11-06T10:58:14.493Z,48.74
2022-11-06T11:00:42.815Z,49.94
2022-11-06T11:08:30.473Z,49.69
2022-11-06T11:11:06.850Z,49.40
2022-11-06T11:13:34.806Z,50.88
2022-11-06T11:16:03.316Z,48.91
2022-11-06T11:18:32.251Z,48.68
2022-11-06T11:21:13.580Z,52.29
2022-11-06T11:23:41.323Z,47.95
2022-11-06T11:26:32.883Z,49.38
2022-11-06T11:29:12.243Z,48.62
2022-11-06T11:31:40.025Z,47.91
2022-11-06T11:34:19.215Z,47.55
2022-11-06T11:37:04.040Z,47.25
2022-11-06T11:39:34.899Z,44.67
2022-11-06T11:42:26.363Z,45.67
2022-11-06T11:45:08.747Z,43.55
2022-11-06T11:47:38.081Z,44.96
2022-11-06T11:50:29.828Z,45.79
2022-11-06T11:53:07.133Z,48.90
2022-11-06T11:55:44.929Z,45.37
2022-11-06T11:58:28.127Z,45.01
2022-11-06T12:01:07.903Z,46.15
2022-11-06T12:03:53.343Z,45.74
2022-11-06T12:06:23.729Z,43.81
2022-11-06T12:08:58.991Z,41.50
2022-11-06T12:11:30.733Z,40.65
2022-11-06T12:14:53.314Z,41.79
2022-11-06T12:17:24.732Z,43.81
2022-11-06T12:19:57.822Z,43.96
2022-11-06T12:22:31.478Z,42.77
2022-11-06T12:25:08.970Z,43.26
2022-11-06T12:27:44.260Z,45.01
2022-11-06T12:30:16.040Z,43.47
2022-11-06T12:33:04.385Z,44.25
2022-11-06T12:35:38.345Z,44.23
2022-11-06T12:38:30.300Z,43.83
2022-11-06T12:41:01.996Z,44.35
2022-11-06T12:43:32.113Z,42.07
2022-11-06T12:46:22.306Z,43.22
2022-11-06T12:49:17.481Z,44.48
2022-11-06T12:52:18.766Z,43.93
2022-11-06T12:55:04.409Z,43.77
2022-11-06T12:58:11.160Z,44.36
2022-11-06T13:00:48.807Z,44.06
2022-11-06T13:03:42.345Z,44.87
2022-11-06T13:06:24.166Z,45.31
2022-11-06T13:09:09.054Z,43.88
2022-11-06T13:11:42.475Z,44.06
2022-11-06T13:14:32.335Z,41.77
2022-11-06T13:17:35.458Z,42.16
2022-11-06T13:20:15.270Z,42.80
2022-11-06T13:22:49.852Z,43.85
2022-11-06T13:25:27.005Z,44.36
2022-11-06T13:28:08.550Z,44.61
2022-11-06T13:30:38.405Z,45.39
2022-11-06T13:33:15.734Z,45.12
2022-11-06T13:35:46.467Z,46.10
2022-11-06T13:38:21.222Z,47.67
2022-11-06T13:40:54.009Z,49.16
2022-11-06T13:43:38.725Z,49.46
2022-11-06T13:46:11.339Z,49.81
2022-11-06T13:48:41.783Z,50.13
2022-11-06T13:51:33.549Z,50.33
2022-11-06T13:54:30.603Z,52.24
2022-11-06T13:57:12.138Z,51.47
2022-11-06T13:59:42.254Z,52.80
2022-11-06T14:02:35.793Z,54.09
2022-11-06T14:05:18.155Z,54.97
2022-11-06T14:07:47.482Z,55.87
2022-11-06T14:10:24.072Z,56.91
2022-11-06T14:12:52.178Z,59.38
2022-11-06T14:15:19.434Z,59.94
2022-11-06T14:17:58.698Z,58.81
2022-11-06T14:20:34.851Z,61.06
2022-11-06T14:23:31.179Z,59.79
2022-11-06T14:26:04.761Z,61.71
2022-11-06T14:28:35.201Z,62.94
2022-11-06T14:31:12.478Z,62.74
2022-11-06T14:33:42.111Z,66.31
2022-11-06T14:36:26.054Z,66.08
2022-11-06T14:38:54.641Z,66.84
2022-11-06T14:41:48.183Z,68.80
2022-11-06T14:44:24.687Z,69.81
2022-11-06T14:47:00.357Z,74.94
2022-11-06T14:49:46.709Z,73.63
2022-11-06T14:52:16.297Z,74.14
2022-11-06T14:55:03.470Z,71.05
2022-11-06T14:57:38.302Z,73.23
2022-11-06T15:00:07.311Z,73.48
2022-11-06T15:02:37.490Z,74.69
2022-11-06T15:05:15.814Z,76.03
2022-11-06T15:08:04.527Z,77.13
2022-11-06T15:10:42.799Z,76.52
2022-11-06T15:13:23.011Z,75.63
2022-11-06T15:15:56.845Z,77.14
2022-11-06T15:18:25.768Z,79.77
2022-11-06T15:20:59.659Z,81.03
2022-11-06T15:23:50.126Z,81.68
2022-11-06T15:26:26.810Z,82.65
2022-11-06T15:29:00.013Z,85.33
2022-11-06T15:31:33.554Z,85.53
2022-11-06T15:34:13.044Z,84.31
2022-11-06T15:36:47.818Z,85.18
2022-11-06T15:39:41.646Z,86.50
2022-11-06T15:42:16.415Z,87.34
2022-11-06T15:44:46.439Z,87.42
2022-11-06T15:47:24.109Z,88.97
2022-11-06T15:50:06.633Z,88.52
2022-11-06T15:52:34.276Z,89.04
2022-11-06T15:55:01.618Z,90.20
2022-11-06T15:57:30.026Z,91.39
2022-11-06T16:00:19.257Z,92.31
2022-11-06T16:02:53.217Z,92.32
2022-11-06T16:05:24.983Z,93.01
2022-11-06T16:07:52.737Z,93.38
2022-11-06T16:10:23.577Z,93.98
2022-11-06T16:12:53.858Z,94.65
2022-11-06T16:16:01.160Z,94.23
2022-11-06T16:18:45.020Z,93.18
2022-11-06T16:21:24.111Z,93.68
2022-11-06T16:23:55.247Z,94.40
2022-11-06T16:26:25.461Z,94.17
2022-11-06T16:28:56.455Z,94.79
2022-11-06T16:31:28.159Z,94.74
2022-11-06T16:33:58.409Z,93.64
2022-11-06T16:36:28.245Z,93.94
2022-11-06T16:39:18.436Z,95.08
2022-11-06T16:41:57.787Z,95.19
2022-11-06T16:44:31.805Z,95.96
2022-11-06T16:47:05.255Z,96.22
2022-11-06T16:49:42.602Z,97.90
2022-11-06T16:52:29.675Z,98.15
2022-11-06T16:54:57.146Z,97.11
2022-11-06T16:57:31.303Z,97.78
2022-11-06T17:00:05.392Z,97.28
2022-11-06T17:02:36.607Z,96.81
2022-11-06T17:05:18.222Z,97.25
2022-11-06T17:07:46.101Z,97.27
2022-11-06T17:10:35.880Z,97.35
2022-11-06T17:13:22.963Z,100.00
2022-11-06T17:15:57.198Z,100.00
2022-11-06T17:18:30.277Z,100.00
2022-11-06T17:21:00.598Z,100.00
2022-11-06T17:23:29.748Z,100.00
2022-11-06T17:26:02.219Z,100.00
2022-11-06T17:28:31.007Z,100.00
2022-11-06T17:30:59.003Z,100.00
2022-11-06T17:33:29.708Z,99.19
2022-11-06T17:35:57.203Z,98.27
2022-11-06T17:38:24.601Z,98.90
2022-11-06T17:40:52.056Z,99.35
2022-11-06T17:43:20.490Z,100.00
2022-11-06T17:45:50.044Z,99.60
2022-11-06T17:48:18.105Z,99.01
2022-11-06T17:51:04.017Z,98.53
2022-11-06T17:53:41.047Z,98.81
2022-11-06T17:56:08.850Z,100.00
2022-11-06T17:58:36.583Z,99.05
2022-11-06T18:01:09.065Z,98.77
2022-11-06T18:03:44.476Z,98.31
2022-11-06T18:06:15.785Z,97.80
2022-11-06T18:08:43.994Z,97.58
2022-11-06T18:11:13.958Z,97.76
2022-11-06T18:13:41.706Z,98.12
2022-11-06T18:16:18.921Z,98.43
2022-11-06T18:18:46.723Z,97.75
2022-11-06T18:21:14.524Z,97.58
2022-11-06T18:23:42.696Z,97.54
2022-11-06T18:26:10.268Z,97.58
2022-11-06T18:28:37.753Z,98.58
2022-11-06T18:31:11.159Z,98.71
2022-11-06T18:33:38.819Z,99.50
2022-11-06T18:36:08.521Z,99.36
2022-11-06T18:38:36.960Z,99.63
2022-11-06T18:41:13.070Z,98.44
2022-11-06T18:43:40.838Z,99.41
2022-11-06T18:46:17.658Z,100.00
2022-11-06T18:48:45.139Z,99.76
2022-11-06T18:51:32.639Z,99.98
2022-11-06T18:54:05.868Z,99.08
2022-11-06T18:56:35.976Z,99.69
2022-11-06T18:59:06.336Z,98.74
2022-11-06T19:01:35.332Z,98.77
2022-11-06T19:04:04.269Z,98.55
2022-11-06T19:06:32.602Z,98.96
2022-11-06T19:09:00.311Z,98.54
2022-11-06T19:11:27.750Z,99.74
2022-11-06T19:13:55.168Z,99.41
2022-11-06T19:16:22.785Z,99.57
2022-11-06T19:21:30.001Z,99.35
2022-11-06T19:24:05.198Z,97.72
2022-11-06T19:26:34.667Z,98.31
2022-11-06T19:29:03.349Z,98.56
2022-11-06T19:31:32.280Z,99.00
2022-11-06T19:34:00.233Z,97.93
2022-11-06T19:36:28.927Z,99.32
2022-11-06T19:38:59.967Z,100.00
2022-11-06T19:41:28.469Z,100.00
2022-11-06T19:43:55.932Z,100.00
2022-11-06T19:46:27.304Z,100.00
2022-11-06T19:48:58.434Z,100.00
2022-11-06T19:51:26.029Z,100.00
2022-11-06T19:53:54.132Z,100.00
2022-11-06T19:56:22.138Z,100.00
2022-11-06T19:58:50.783Z,99.96
2022-11-06T20:01:19.395Z,99.37
2022-11-06T20:03:47.611Z,98.69
2022-11-06T20:06:15.409Z,98.72
2022-11-06T20:08:43.038Z,98.86
2022-11-06T20:11:14.004Z,97.74
2022-11-06T20:13:43.926Z,97.73
2022-11-06T20:16:14.891Z,96.22
2022-11-06T20:18:42.749Z,95.97
2022-11-06T20:21:12.420Z,96.32
2022-11-06T20:23:40.162Z,95.75
2022-11-06T20:26:08.267Z,95.26
2022-11-06T20:28:36.088Z,95.57
2022-11-06T20:31:11.789Z,96.80
2022-11-06T20:33:40.540Z,97.31
2022-11-06T20:36:13.313Z,96.66
2022-11-06T20:38:41.826Z,94.48
2022-11-06T20:41:10.133Z,95.55
2022-11-06T20:43:37.859Z,95.64
2022-11-06T20:46:06.198Z,95.32
2022-11-06T20:48:37.015Z,93.29
2022-11-06T20:51:10.515Z,94.63
2022-11-06T20:53:39.677Z,94.26
2022-11-06T20:56:15.169Z,95.66
2022-11-06T20:58:44.717Z,96.44
2022-11-06T21:01:20.402Z,94.70
2022-11-06T21:03:50.851Z,96.00
2022-11-06T21:06:21.495Z,95.48
2022-11-06T21:08:49.154Z,95.48
2022-11-06T21:11:19.507Z,95.87
2022-11-06T21:13:49.014Z,95.25
2022-11-06T21:16:22.913Z,95.12
2022-11-06T21:18:51.479Z,94.52
2022-11-06T21:21:22.222Z,94.13
2022-11-06T21:23:50.787Z,94.91
2022-11-06T21:26:21.746Z,95.48
2022-11-06T21:28:50.018Z,94.73
2022-11-06T21:31:20.697Z,95.45
2022-11-06T21:33:50.529Z,95.10
2022-11-06T21:36:25.364Z,95.93
2022-11-06T21:38:54.393Z,94.81
2022-11-06T21:41:25.448Z,94.55
2022-11-06T21:43:53.377Z,95.23
2022-11-06T21:46:22.044Z,95.33
2022-11-06T21:48:50.261Z,95.76
2022-11-06T21:51:18.055Z,96.67
2022-11-06T21:54:05.743Z,96.56
2022-11-06T21:56:34.045Z,97.25
2022-11-06T21:59:04.244Z,96.09
2022-11-06T22:01:32.413Z,96.45
2022-11-06T22:04:00.329Z,97.37
2022-11-06T22:06:29.283Z,98.72
2022-11-06T22:08:59.761Z,98.42
2022-11-06T22:11:30.625Z,97.46
2022-11-06T22:14:00.847Z,98.04
2022-11-06T22:16:32.253Z,97.03
2022-11-06T22:18:59.779Z,97.45
2022-11-06T22:21:29.232Z,96.27
2022-11-06T22:23:57.538Z,95.99
2022-11-06T22:26:29.114Z,96.59
2022-11-06T22:29:07.154Z,96.25
2022-11-06T22:31:35.295Z,95.71
2022-11-06T22:34:03.855Z,95.90
2022-11-06T22:36:32.097Z,95.73
2022-11-06T22:39:04.426Z,94.88
2022-11-06T22:41:31.905Z,92.92
2022-11-06T22:43:59.882Z,97.42
2022-11-06T22:46:33.336Z,97.53
2022-11-06T22:54:00.758Z,96.13
2022-11-06T22:56:31.053Z,96.71
2022-11-06T22:59:02.017Z,96.65
2022-11-06T23:02:00.781Z,96.03
2022-11-06T23:04:37.769Z,95.72
2022-11-06T23:07:05.436Z,95.79
2022-11-06T23:09:32.978Z,94.24
2022-11-06T23:12:00.634Z,94.11
2022-11-06T23:14:28.645Z,93.93
2022-11-06T23:17:00.857Z,95.41
2022-11-06T23:19:30.970Z,94.38
2022-11-06T23:22:17.438Z,94.24
2022-11-06T23:24:45.728Z,93.78
2022-11-06T23:27:13.302Z,93.53
2022-11-06T23:29:40.781Z,93.39
2022-11-06T23:32:10.870Z,93.98
2022-11-06T23:34:38.392Z,92.82
2022-11-06T23:37:06.001Z,93.66
2022-11-06T23:39:33.471Z,92.98
2022-11-06T23:42:03.541Z,91.60
2022-11-06T23:44:49.726Z,91.42
2022-11-06T23:47:17.319Z,92.62
2022-11-06T23:49:44.872Z,95.60
2022-11-06T23:52:12.563Z,92.48
2022-11-06T23:54:40.096Z,95.59
2022-11-06T23:57:08.654Z,94.64
2022-11-06T23:59:36.519Z,95.49
